sensor_id;sensor_type;location;lat;lon;timestamp;P1;durP1;ratioP1;P2;durP2;ratioP2
77123;SDS011;66079;47.646;19.130;2023-02-04T00:02:58;4.07;;;1.13;;
77123;SDS011;66079;47.646;19.130;2023-02-04T00:06:00;3.80;;;1.40;;
77123;SDS011;66079;47.646;19.130;2023-02-04T00:09:03;5.30;;;1.33;;
77123;SDS011;66079;47.646;19.130;2023-02-04T00:12:05;6.30;;;1.13;;
77123;SDS011;66079;47.646;19.130;2023-02-04T00:15:08;5.35;;;1.25;;
77123;SDS011;66079;47.646;19.130;2023-02-04T00:18:11;3.83;;;1.38;;
77123;SDS011;66079;47.646;19.130;2023-02-04T00:21:14;5.03;;;1.17;;
77123;SDS011;66079;47.646;19.130;2023-02-04T00:24:16;4.80;;;1.25;;
77123;SDS011;66079;47.646;19.130;2023-02-04T00:27:19;9.63;;;1.77;;
77123;SDS011;66079;47.646;19.130;2023-02-04T00:30:21;5.87;;;1.60;;
77123;SDS011;66079;47.646;19.130;2023-02-04T00:33:24;3.97;;;1.20;;
77123;SDS011;66079;47.646;19.130;2023-02-04T00:36:27;6.32;;;1.10;;
77123;SDS011;66079;47.646;19.130;2023-02-04T00:39:29;4.50;;;1.17;;
77123;SDS011;66079;47.646;19.130;2023-02-04T00:42:32;5.63;;;1.73;;
77123;SDS011;66079;47.646;19.130;2023-02-04T00:45:35;10.17;;;1.50;;
77123;SDS011;66079;47.646;19.130;2023-02-04T00:48:38;3.42;;;1.15;;
77123;SDS011;66079;47.646;19.130;2023-02-04T00:51:40;4.78;;;1.67;;
77123;SDS011;66079;47.646;19.130;2023-02-04T00:54:47;3.90;;;1.13;;
77123;SDS011;66079;47.646;19.130;2023-02-04T00:57:50;2.20;;;1.40;;
77123;SDS011;66079;47.646;19.130;2023-02-04T01:00:52;5.45;;;1.20;;
77123;SDS011;66079;47.646;19.130;2023-02-04T01:03:55;6.88;;;1.50;;
77123;SDS011;66079;47.646;19.130;2023-02-04T01:06:58;4.18;;;1.00;;
77123;SDS011;66079;47.646;19.130;2023-02-04T01:10:01;5.83;;;1.77;;
77123;SDS011;66079;47.646;19.130;2023-02-04T01:13:05;5.68;;;1.40;;
77123;SDS011;66079;47.646;19.130;2023-02-04T01:16:09;4.20;;;1.25;;
77123;SDS011;66079;47.646;19.130;2023-02-04T01:19:12;1.55;;;0.82;;
77123;SDS011;66079;47.646;19.130;2023-02-04T01:22:14;5.10;;;1.30;;
77123;SDS011;66079;47.646;19.130;2023-02-04T01:25:17;5.67;;;1.30;;
77123;SDS011;66079;47.646;19.130;2023-02-04T01:28:19;6.63;;;1.55;;
77123;SDS011;66079;47.646;19.130;2023-02-04T01:31:22;6.00;;;1.40;;
77123;SDS011;66079;47.646;19.130;2023-02-04T01:34:24;6.35;;;1.70;;
77123;SDS011;66079;47.646;19.130;2023-02-04T01:37:27;5.87;;;1.30;;
77123;SDS011;66079;47.646;19.130;2023-02-04T01:40:29;5.47;;;1.20;;
77123;SDS011;66079;47.646;19.130;2023-02-04T01:43:34;6.65;;;1.40;;
77123;SDS011;66079;47.646;19.130;2023-02-04T01:46:36;7.28;;;1.40;;
77123;SDS011;66079;47.646;19.130;2023-02-04T01:49:39;7.10;;;1.40;;
77123;SDS011;66079;47.646;19.130;2023-02-04T01:52:42;4.25;;;1.08;;
77123;SDS011;66079;47.646;19.130;2023-02-04T01:55:46;3.28;;;1.40;;
77123;SDS011;66079;47.646;19.130;2023-02-04T01:58:49;9.15;;;1.58;;
77123;SDS011;66079;47.646;19.130;2023-02-04T02:01:52;4.50;;;1.10;;
77123;SDS011;66079;47.646;19.130;2023-02-04T02:04:55;2.57;;;1.10;;
77123;SDS011;66079;47.646;19.130;2023-02-04T02:07:59;4.25;;;1.02;;
77123;SDS011;66079;47.646;19.130;2023-02-04T02:11:04;4.68;;;1.30;;
77123;SDS011;66079;47.646;19.130;2023-02-04T02:14:07;4.68;;;1.48;;
77123;SDS011;66079;47.646;19.130;2023-02-04T02:17:09;2.77;;;1.03;;
77123;SDS011;66079;47.646;19.130;2023-02-04T02:20:14;7.15;;;1.30;;
77123;SDS011;66079;47.646;19.130;2023-02-04T02:26:46;4.70;;;0.77;;
77123;SDS011;66079;47.646;19.130;2023-02-04T02:29:48;5.30;;;1.23;;
77123;SDS011;66079;47.646;19.130;2023-02-04T02:32:52;4.90;;;1.10;;
77123;SDS011;66079;47.646;19.130;2023-02-04T02:35:55;2.88;;;1.60;;
77123;SDS011;66079;47.646;19.130;2023-02-04T02:38:58;2.15;;;0.90;;
77123;SDS011;66079;47.646;19.130;2023-02-04T02:42:02;5.88;;;1.25;;
77123;SDS011;66079;47.646;19.130;2023-02-04T02:45:06;3.90;;;1.10;;
77123;SDS011;66079;47.646;19.130;2023-02-04T02:48:17;4.83;;;1.13;;
77123;SDS011;66079;47.646;19.130;2023-02-04T02:51:20;4.72;;;0.85;;
77123;SDS011;66079;47.646;19.130;2023-02-04T02:54:24;2.10;;;0.90;;
77123;SDS011;66079;47.646;19.130;2023-02-04T02:57:31;2.65;;;0.88;;
77123;SDS011;66079;47.646;19.130;2023-02-04T03:00:34;3.70;;;1.20;;
77123;SDS011;66079;47.646;19.130;2023-02-04T03:03:46;5.77;;;0.83;;
77123;SDS011;66079;47.646;19.130;2023-02-04T03:06:52;4.22;;;1.02;;
77123;SDS011;66079;47.646;19.130;2023-02-04T03:09:58;3.67;;;0.85;;
77123;SDS011;66079;47.646;19.130;2023-02-04T03:13:01;3.33;;;0.50;;
77123;SDS011;66079;47.646;19.130;2023-02-04T03:16:05;2.90;;;0.90;;
77123;SDS011;66079;47.646;19.130;2023-02-04T03:19:09;1.90;;;0.83;;
77123;SDS011;66079;47.646;19.130;2023-02-04T03:22:13;3.45;;;0.57;;
77123;SDS011;66079;47.646;19.130;2023-02-04T03:25:16;4.43;;;1.00;;
77123;SDS011;66079;47.646;19.130;2023-02-04T03:28:19;2.75;;;0.73;;
77123;SDS011;66079;47.646;19.130;2023-02-04T03:31:22;1.87;;;0.73;;
77123;SDS011;66079;47.646;19.130;2023-02-04T03:34:24;3.97;;;0.80;;
77123;SDS011;66079;47.646;19.130;2023-02-04T03:37:27;3.08;;;0.80;;
77123;SDS011;66079;47.646;19.130;2023-02-04T03:40:29;0.90;;;0.60;;
77123;SDS011;66079;47.646;19.130;2023-02-04T03:43:32;5.45;;;0.90;;
77123;SDS011;66079;47.646;19.130;2023-02-04T03:46:35;3.57;;;0.63;;
77123;SDS011;66079;47.646;19.130;2023-02-04T03:49:37;3.55;;;0.73;;
77123;SDS011;66079;47.646;19.130;2023-02-04T03:52:40;2.35;;;0.80;;
77123;SDS011;66079;47.646;19.130;2023-02-04T03:55:43;1.95;;;0.82;;
77123;SDS011;66079;47.646;19.130;2023-02-04T03:58:45;1.97;;;0.77;;
77123;SDS011;66079;47.646;19.130;2023-02-04T04:01:47;3.70;;;0.73;;
77123;SDS011;66079;47.646;19.130;2023-02-04T04:04:50;4.07;;;1.17;;
77123;SDS011;66079;47.646;19.130;2023-02-04T04:07:53;2.03;;;1.02;;
77123;SDS011;66079;47.646;19.130;2023-02-04T04:10:56;4.93;;;0.93;;
77123;SDS011;66079;47.646;19.130;2023-02-04T04:13:59;2.90;;;0.80;;
77123;SDS011;66079;47.646;19.130;2023-02-04T04:17:02;2.90;;;1.05;;
77123;SDS011;66079;47.646;19.130;2023-02-04T04:20:05;4.38;;;1.08;;
77123;SDS011;66079;47.646;19.130;2023-02-04T04:23:08;4.78;;;1.00;;
77123;SDS011;66079;47.646;19.130;2023-02-04T04:26:11;3.73;;;1.10;;
77123;SDS011;66079;47.646;19.130;2023-02-04T04:29:13;4.30;;;0.80;;
77123;SDS011;66079;47.646;19.130;2023-02-04T04:32:16;2.90;;;0.77;;
77123;SDS011;66079;47.646;19.130;2023-02-04T04:35:19;2.30;;;0.77;;
77123;SDS011;66079;47.646;19.130;2023-02-04T04:38:21;1.90;;;0.55;;
77123;SDS011;66079;47.646;19.130;2023-02-04T04:41:24;2.90;;;0.70;;
77123;SDS011;66079;47.646;19.130;2023-02-04T04:44:26;3.35;;;0.95;;
77123;SDS011;66079;47.646;19.130;2023-02-04T04:47:29;3.42;;;0.93;;
77123;SDS011;66079;47.646;19.130;2023-02-04T04:50:31;1.70;;;0.52;;
77123;SDS011;66079;47.646;19.130;2023-02-04T04:53:34;2.07;;;0.40;;
77123;SDS011;66079;47.646;19.130;2023-02-04T04:56:37;1.98;;;0.70;;
77123;SDS011;66079;47.646;19.130;2023-02-04T04:59:39;2.88;;;0.70;;
77123;SDS011;66079;47.646;19.130;2023-02-04T05:02:42;3.33;;;0.90;;
77123;SDS011;66079;47.646;19.130;2023-02-04T05:05:44;4.87;;;0.80;;
77123;SDS011;66079;47.646;19.130;2023-02-04T05:08:47;4.27;;;0.67;;
77123;SDS011;66079;47.646;19.130;2023-02-04T05:11:50;3.28;;;0.50;;
77123;SDS011;66079;47.646;19.130;2023-02-04T05:14:52;3.20;;;0.52;;
77123;SDS011;66079;47.646;19.130;2023-02-04T05:17:55;2.63;;;0.50;;
77123;SDS011;66079;47.646;19.130;2023-02-04T05:20:59;4.00;;;0.70;;
77123;SDS011;66079;47.646;19.130;2023-02-04T05:24:02;4.57;;;0.73;;
77123;SDS011;66079;47.646;19.130;2023-02-04T05:27:04;2.17;;;0.50;;
77123;SDS011;66079;47.646;19.130;2023-02-04T05:30:08;5.07;;;0.60;;
77123;SDS011;66079;47.646;19.130;2023-02-04T05:33:12;1.95;;;0.50;;
77123;SDS011;66079;47.646;19.130;2023-02-04T05:36:15;0.70;;;0.30;;
77123;SDS011;66079;47.646;19.130;2023-02-04T05:39:18;1.80;;;0.40;;
77123;SDS011;66079;47.646;19.130;2023-02-04T05:42:21;1.48;;;0.30;;
77123;SDS011;66079;47.646;19.130;2023-02-04T05:45:24;2.40;;;0.47;;
77123;SDS011;66079;47.646;19.130;2023-02-04T05:48:27;3.10;;;0.50;;
77123;SDS011;66079;47.646;19.130;2023-02-04T05:51:29;1.67;;;0.57;;
77123;SDS011;66079;47.646;19.130;2023-02-04T05:54:32;1.58;;;0.40;;
77123;SDS011;66079;47.646;19.130;2023-02-04T05:57:34;0.73;;;0.40;;
77123;SDS011;66079;47.646;19.130;2023-02-04T06:00:37;1.33;;;0.80;;
77123;SDS011;66079;47.646;19.130;2023-02-04T06:03:40;0.23;;;0.20;;
77123;SDS011;66079;47.646;19.130;2023-02-04T06:06:43;1.42;;;0.32;;
77123;SDS011;66079;47.646;19.130;2023-02-04T06:09:45;0.10;;;0.10;;
77123;SDS011;66079;47.646;19.130;2023-02-04T06:12:48;3.47;;;0.32;;
77123;SDS011;66079;47.646;19.130;2023-02-04T06:15:50;0.10;;;0.10;;
77123;SDS011;66079;47.646;19.130;2023-02-04T06:18:53;0.30;;;0.20;;
77123;SDS011;66079;47.646;19.130;2023-02-04T06:21:56;0.35;;;0.30;;
77123;SDS011;66079;47.646;19.130;2023-02-04T06:24:58;0.40;;;0.20;;
77123;SDS011;66079;47.646;19.130;2023-02-04T06:28:01;0.47;;;0.30;;
77123;SDS011;66079;47.646;19.130;2023-02-04T06:31:03;1.05;;;0.30;;
77123;SDS011;66079;47.646;19.130;2023-02-04T06:34:06;0.30;;;0.30;;
77123;SDS011;66079;47.646;19.130;2023-02-04T06:37:09;0.63;;;0.20;;
77123;SDS011;66079;47.646;19.130;2023-02-04T06:40:12;0.20;;;0.20;;
77123;SDS011;66079;47.646;19.130;2023-02-04T06:43:14;0.40;;;0.30;;
77123;SDS011;66079;47.646;19.130;2023-02-04T06:46:17;0.47;;;0.30;;
77123;SDS011;66079;47.646;19.130;2023-02-04T06:49:20;0.90;;;0.30;;
77123;SDS011;66079;47.646;19.130;2023-02-04T06:52:22;0.53;;;0.43;;
77123;SDS011;66079;47.646;19.130;2023-02-04T06:55:25;0.60;;;0.30;;
77123;SDS011;66079;47.646;19.130;2023-02-04T06:58:27;0.80;;;0.50;;
77123;SDS011;66079;47.646;19.130;2023-02-04T07:01:30;0.80;;;0.65;;
77123;SDS011;66079;47.646;19.130;2023-02-04T07:04:33;0.67;;;0.63;;
77123;SDS011;66079;47.646;19.130;2023-02-04T07:07:36;0.80;;;0.47;;
77123;SDS011;66079;47.646;19.130;2023-02-04T07:10:39;0.93;;;0.50;;
77123;SDS011;66079;47.646;19.130;2023-02-04T07:13:41;0.88;;;0.70;;
77123;SDS011;66079;47.646;19.130;2023-02-04T07:16:44;0.97;;;0.50;;
77123;SDS011;66079;47.646;19.130;2023-02-04T07:19:47;4.13;;;1.77;;
77123;SDS011;66079;47.646;19.130;2023-02-04T07:22:49;2.15;;;0.85;;
77123;SDS011;66079;47.646;19.130;2023-02-04T07:25:52;2.60;;;1.20;;
77123;SDS011;66079;47.646;19.130;2023-02-04T07:28:57;1.20;;;0.70;;
77123;SDS011;66079;47.646;19.130;2023-02-04T07:31:59;1.98;;;1.00;;
77123;SDS011;66079;47.646;19.130;2023-02-04T07:35:02;2.55;;;1.15;;
77123;SDS011;66079;47.646;19.130;2023-02-04T07:38:05;4.93;;;1.65;;
77123;SDS011;66079;47.646;19.130;2023-02-04T07:41:08;1.13;;;0.83;;
77123;SDS011;66079;47.646;19.130;2023-02-04T07:44:10;2.53;;;1.33;;
77123;SDS011;66079;47.646;19.130;2023-02-04T07:47:13;3.38;;;0.98;;
77123;SDS011;66079;47.646;19.130;2023-02-04T07:50:16;2.73;;;1.60;;
77123;SDS011;66079;47.646;19.130;2023-02-04T07:53:19;3.03;;;1.43;;
77123;SDS011;66079;47.646;19.130;2023-02-04T07:56:21;2.70;;;1.92;;
77123;SDS011;66079;47.646;19.130;2023-02-04T07:59:24;3.80;;;1.70;;
77123;SDS011;66079;47.646;19.130;2023-02-04T08:02:26;2.88;;;1.92;;
77123;SDS011;66079;47.646;19.130;2023-02-04T08:05:29;3.47;;;1.90;;
77123;SDS011;66079;47.646;19.130;2023-02-04T08:08:31;2.50;;;1.63;;
77123;SDS011;66079;47.646;19.130;2023-02-04T08:11:34;2.80;;;2.00;;
77123;SDS011;66079;47.646;19.130;2023-02-04T08:14:37;2.97;;;2.10;;
77123;SDS011;66079;47.646;19.130;2023-02-04T08:17:39;3.77;;;2.23;;
77123;SDS011;66079;47.646;19.130;2023-02-04T08:20:42;2.83;;;1.63;;
77123;SDS011;66079;47.646;19.130;2023-02-04T08:23:44;2.97;;;1.60;;
77123;SDS011;66079;47.646;19.130;2023-02-04T08:26:47;3.83;;;2.17;;
77123;SDS011;66079;47.646;19.130;2023-02-04T08:29:51;2.73;;;1.97;;
77123;SDS011;66079;47.646;19.130;2023-02-04T08:32:54;3.17;;;1.98;;
77123;SDS011;66079;47.646;19.130;2023-02-04T08:35:56;4.22;;;1.98;;
77123;SDS011;66079;47.646;19.130;2023-02-04T08:38:59;2.42;;;1.88;;
77123;SDS011;66079;47.646;19.130;2023-02-04T08:42:01;3.27;;;2.07;;
77123;SDS011;66079;47.646;19.130;2023-02-04T08:45:04;4.95;;;2.20;;
77123;SDS011;66079;47.646;19.130;2023-02-04T08:48:07;2.75;;;1.90;;
77123;SDS011;66079;47.646;19.130;2023-02-04T08:51:10;4.15;;;1.55;;
77123;SDS011;66079;47.646;19.130;2023-02-04T08:54:13;6.27;;;1.80;;
77123;SDS011;66079;47.646;19.130;2023-02-04T08:57:15;1.67;;;1.40;;
77123;SDS011;66079;47.646;19.130;2023-02-04T09:00:18;2.47;;;1.45;;
77123;SDS011;66079;47.646;19.130;2023-02-04T09:03:21;3.20;;;2.30;;
77123;SDS011;66079;47.646;19.130;2023-02-04T09:06:24;2.77;;;1.53;;
77123;SDS011;66079;47.646;19.130;2023-02-04T09:09:26;1.85;;;1.55;;
77123;SDS011;66079;47.646;19.130;2023-02-04T09:12:29;1.52;;;1.30;;
77123;SDS011;66079;47.646;19.130;2023-02-04T09:15:31;3.90;;;1.50;;
77123;SDS011;66079;47.646;19.130;2023-02-04T09:18:34;2.97;;;1.37;;
77123;SDS011;66079;47.646;19.130;2023-02-04T09:21:37;1.80;;;1.00;;
77123;SDS011;66079;47.646;19.130;2023-02-04T09:24:40;1.40;;;0.90;;
77123;SDS011;66079;47.646;19.130;2023-02-04T09:27:43;1.10;;;0.80;;
77123;SDS011;66079;47.646;19.130;2023-02-04T09:30:45;1.33;;;1.08;;
77123;SDS011;66079;47.646;19.130;2023-02-04T09:33:49;2.20;;;0.93;;
77123;SDS011;66079;47.646;19.130;2023-02-04T09:36:51;1.30;;;1.00;;
77123;SDS011;66079;47.646;19.130;2023-02-04T09:39:54;3.22;;;1.50;;
77123;SDS011;66079;47.646;19.130;2023-02-04T09:42:56;1.55;;;0.80;;
77123;SDS011;66079;47.646;19.130;2023-02-04T09:46:01;1.45;;;1.00;;
77123;SDS011;66079;47.646;19.130;2023-02-04T09:49:04;2.10;;;0.80;;
77123;SDS011;66079;47.646;19.130;2023-02-04T09:52:09;1.30;;;0.80;;
77123;SDS011;66079;47.646;19.130;2023-02-04T09:55:15;1.02;;;0.70;;
77123;SDS011;66079;47.646;19.130;2023-02-04T09:58:21;1.10;;;0.88;;
77123;SDS011;66079;47.646;19.130;2023-02-04T10:01:25;0.95;;;0.60;;
77123;SDS011;66079;47.646;19.130;2023-02-04T10:04:29;1.47;;;0.70;;
77123;SDS011;66079;47.646;19.130;2023-02-04T10:07:32;1.83;;;0.77;;
77123;SDS011;66079;47.646;19.130;2023-02-04T10:10:34;1.67;;;0.77;;
77123;SDS011;66079;47.646;19.130;2023-02-04T10:13:40;3.38;;;1.05;;
77123;SDS011;66079;47.646;19.130;2023-02-04T10:16:47;1.77;;;0.80;;
77123;SDS011;66079;47.646;19.130;2023-02-04T10:19:55;2.30;;;0.90;;
77123;SDS011;66079;47.646;19.130;2023-02-04T10:22:58;1.40;;;0.65;;
77123;SDS011;66079;47.646;19.130;2023-02-04T10:26:00;3.78;;;0.90;;
77123;SDS011;66079;47.646;19.130;2023-02-04T10:29:06;2.13;;;0.85;;
77123;SDS011;66079;47.646;19.130;2023-02-04T10:32:32;1.20;;;0.83;;
77123;SDS011;66079;47.646;19.130;2023-02-04T10:35:42;1.70;;;1.17;;
77123;SDS011;66079;47.646;19.130;2023-02-04T10:38:57;4.68;;;2.08;;
77123;SDS011;66079;47.646;19.130;2023-02-04T10:42:01;4.13;;;2.22;;
77123;SDS011;66079;47.646;19.130;2023-02-04T10:45:03;1.45;;;1.10;;
77123;SDS011;66079;47.646;19.130;2023-02-04T10:48:13;2.47;;;1.60;;
77123;SDS011;66079;47.646;19.130;2023-02-04T10:51:17;2.00;;;1.30;;
77123;SDS011;66079;47.646;19.130;2023-02-04T10:54:20;1.30;;;1.00;;
77123;SDS011;66079;47.646;19.130;2023-02-04T10:57:33;0.95;;;0.80;;
77123;SDS011;66079;47.646;19.130;2023-02-04T11:00:40;1.15;;;0.90;;
77123;SDS011;66079;47.646;19.130;2023-02-04T11:03:43;3.77;;;1.00;;
77123;SDS011;66079;47.646;19.130;2023-02-04T11:06:49;2.30;;;1.00;;
77123;SDS011;66079;47.646;19.130;2023-02-04T11:09:53;2.63;;;1.50;;
77123;SDS011;66079;47.646;19.130;2023-02-04T11:19:33;2.50;;;1.50;;
77123;SDS011;66079;47.646;19.130;2023-02-04T11:22:43;1.10;;;1.00;;
77123;SDS011;66079;47.646;19.130;2023-02-04T11:29:26;1.42;;;1.10;;
77123;SDS011;66079;47.646;19.130;2023-02-04T11:32:33;1.58;;;1.17;;
77123;SDS011;66079;47.646;19.130;2023-02-04T11:35:39;0.93;;;0.90;;
77123;SDS011;66079;47.646;19.130;2023-02-04T11:39:13;2.35;;;1.15;;
77123;SDS011;66079;47.646;19.130;2023-02-04T11:42:20;1.65;;;1.20;;
77123;SDS011;66079;47.646;19.130;2023-02-04T11:45:30;1.80;;;1.30;;
77123;SDS011;66079;47.646;19.130;2023-02-04T11:48:40;1.88;;;1.20;;
77123;SDS011;66079;47.646;19.130;2023-02-04T11:51:45;1.30;;;0.70;;
77123;SDS011;66079;47.646;19.130;2023-02-04T11:54:57;1.58;;;0.90;;
77123;SDS011;66079;47.646;19.130;2023-02-04T11:58:00;1.25;;;1.00;;
77123;SDS011;66079;47.646;19.130;2023-02-04T12:01:03;1.20;;;1.10;;
77123;SDS011;66079;47.646;19.130;2023-02-04T12:04:06;1.35;;;0.85;;
77123;SDS011;66079;47.646;19.130;2023-02-04T12:07:23;1.37;;;0.77;;
77123;SDS011;66079;47.646;19.130;2023-02-04T12:10:32;1.50;;;0.73;;
77123;SDS011;66079;47.646;19.130;2023-02-04T12:13:44;1.65;;;1.35;;
77123;SDS011;66079;47.646;19.130;2023-02-04T12:16:51;1.10;;;1.00;;
77123;SDS011;66079;47.646;19.130;2023-02-04T12:19:54;1.30;;;1.20;;
77123;SDS011;66079;47.646;19.130;2023-02-04T12:22:57;2.30;;;1.53;;
77123;SDS011;66079;47.646;19.130;2023-02-04T12:25:59;1.30;;;1.00;;
77123;SDS011;66079;47.646;19.130;2023-02-04T12:29:02;1.20;;;0.98;;
77123;SDS011;66079;47.646;19.130;2023-02-04T12:32:06;1.50;;;0.95;;
77123;SDS011;66079;47.646;19.130;2023-02-04T12:35:09;1.80;;;1.10;;
77123;SDS011;66079;47.646;19.130;2023-02-04T12:38:11;1.27;;;1.00;;
77123;SDS011;66079;47.646;19.130;2023-02-04T12:41:14;1.73;;;1.20;;
77123;SDS011;66079;47.646;19.130;2023-02-04T12:44:16;2.33;;;1.35;;
77123;SDS011;66079;47.646;19.130;2023-02-04T12:47:19;3.15;;;1.20;;
77123;SDS011;66079;47.646;19.130;2023-02-04T12:50:22;2.35;;;1.27;;
77123;SDS011;66079;47.646;19.130;2023-02-04T12:53:25;3.43;;;1.00;;
77123;SDS011;66079;47.646;19.130;2023-02-04T12:56:27;4.90;;;1.33;;
77123;SDS011;66079;47.646;19.130;2023-02-04T12:59:33;2.75;;;1.40;;
77123;SDS011;66079;47.646;19.130;2023-02-04T13:02:35;1.63;;;1.20;;
77123;SDS011;66079;47.646;19.130;2023-02-04T13:05:38;1.77;;;1.02;;
77123;SDS011;66079;47.646;19.130;2023-02-04T13:08:40;1.83;;;1.20;;
77123;SDS011;66079;47.646;19.130;2023-02-04T13:11:43;1.75;;;1.30;;
77123;SDS011;66079;47.646;19.130;2023-02-04T13:14:46;1.63;;;1.00;;
77123;SDS011;66079;47.646;19.130;2023-02-04T13:17:49;1.85;;;1.00;;
77123;SDS011;66079;47.646;19.130;2023-02-04T13:20:51;2.72;;;1.50;;
77123;SDS011;66079;47.646;19.130;2023-02-04T13:23:54;1.37;;;1.03;;
77123;SDS011;66079;47.646;19.130;2023-02-04T13:26:58;3.63;;;1.40;;
77123;SDS011;66079;47.646;19.130;2023-02-04T13:30:01;2.67;;;1.52;;
77123;SDS011;66079;47.646;19.130;2023-02-04T13:33:04;2.88;;;1.60;;
77123;SDS011;66079;47.646;19.130;2023-02-04T13:36:07;1.70;;;1.20;;
77123;SDS011;66079;47.646;19.130;2023-02-04T13:39:11;1.70;;;1.03;;
77123;SDS011;66079;47.646;19.130;2023-02-04T13:42:13;2.10;;;1.40;;
77123;SDS011;66079;47.646;19.130;2023-02-04T13:45:16;2.42;;;1.40;;
77123;SDS011;66079;47.646;19.130;2023-02-04T13:48:20;3.70;;;1.83;;
77123;SDS011;66079;47.646;19.130;2023-02-04T13:51:22;3.55;;;1.92;;
77123;SDS011;66079;47.646;19.130;2023-02-04T13:54:25;1.43;;;1.07;;
77123;SDS011;66079;47.646;19.130;2023-02-04T13:57:27;2.47;;;1.65;;
77123;SDS011;66079;47.646;19.130;2023-02-04T14:00:32;1.67;;;1.30;;
77123;SDS011;66079;47.646;19.130;2023-02-04T14:03:35;3.33;;;1.70;;
77123;SDS011;66079;47.646;19.130;2023-02-04T14:06:38;2.80;;;1.58;;
77123;SDS011;66079;47.646;19.130;2023-02-04T14:09:44;1.83;;;1.43;;
77123;SDS011;66079;47.646;19.130;2023-02-04T14:12:50;2.55;;;1.75;;
77123;SDS011;66079;47.646;19.130;2023-02-04T14:15:53;3.08;;;2.10;;
77123;SDS011;66079;47.646;19.130;2023-02-04T14:18:55;2.42;;;1.67;;
77123;SDS011;66079;47.646;19.130;2023-02-04T14:21:58;3.83;;;2.30;;
77123;SDS011;66079;47.646;19.130;2023-02-04T14:25:01;3.60;;;1.87;;
77123;SDS011;66079;47.646;19.130;2023-02-04T14:28:05;2.85;;;1.73;;
77123;SDS011;66079;47.646;19.130;2023-02-04T14:31:08;2.25;;;1.90;;
77123;SDS011;66079;47.646;19.130;2023-02-04T14:34:10;2.90;;;2.05;;
77123;SDS011;66079;47.646;19.130;2023-02-04T14:37:13;3.13;;;2.00;;
77123;SDS011;66079;47.646;19.130;2023-02-04T14:40:16;3.43;;;1.90;;
77123;SDS011;66079;47.646;19.130;2023-02-04T14:43:20;2.75;;;1.70;;
77123;SDS011;66079;47.646;19.130;2023-02-04T14:46:22;3.17;;;1.90;;
77123;SDS011;66079;47.646;19.130;2023-02-04T14:49:25;2.70;;;1.88;;
77123;SDS011;66079;47.646;19.130;2023-02-04T14:52:28;5.88;;;2.60;;
77123;SDS011;66079;47.646;19.130;2023-02-04T14:55:30;4.63;;;3.20;;
77123;SDS011;66079;47.646;19.130;2023-02-04T14:58:33;6.03;;;2.85;;
77123;SDS011;66079;47.646;19.130;2023-02-04T15:01:36;7.60;;;4.20;;
77123;SDS011;66079;47.646;19.130;2023-02-04T15:04:39;3.13;;;1.80;;
77123;SDS011;66079;47.646;19.130;2023-02-04T15:07:41;3.53;;;1.90;;
77123;SDS011;66079;47.646;19.130;2023-02-04T15:10:45;3.37;;;2.10;;
77123;SDS011;66079;47.646;19.130;2023-02-04T15:13:47;2.58;;;1.52;;
77123;SDS011;66079;47.646;19.130;2023-02-04T15:16:50;2.38;;;1.40;;
77123;SDS011;66079;47.646;19.130;2023-02-04T15:19:52;4.25;;;2.03;;
77123;SDS011;66079;47.646;19.130;2023-02-04T15:22:55;2.75;;;1.40;;
77123;SDS011;66079;47.646;19.130;2023-02-04T15:26:01;3.03;;;1.37;;
77123;SDS011;66079;47.646;19.130;2023-02-04T15:29:04;3.30;;;1.52;;
77123;SDS011;66079;47.646;19.130;2023-02-04T15:32:07;2.95;;;1.65;;
77123;SDS011;66079;47.646;19.130;2023-02-04T15:35:11;2.95;;;1.40;;
77123;SDS011;66079;47.646;19.130;2023-02-04T15:38:14;2.53;;;1.17;;
77123;SDS011;66079;47.646;19.130;2023-02-04T15:41:17;3.97;;;1.65;;
77123;SDS011;66079;47.646;19.130;2023-02-04T15:44:19;2.25;;;1.40;;
77123;SDS011;66079;47.646;19.130;2023-02-04T15:47:22;2.35;;;1.10;;
77123;SDS011;66079;47.646;19.130;2023-02-04T15:50:25;1.53;;;1.30;;
77123;SDS011;66079;47.646;19.130;2023-02-04T15:53:27;2.28;;;1.25;;
77123;SDS011;66079;47.646;19.130;2023-02-04T15:56:30;2.13;;;1.38;;
77123;SDS011;66079;47.646;19.130;2023-02-04T15:59:32;3.37;;;1.60;;
77123;SDS011;66079;47.646;19.130;2023-02-04T16:02:35;3.50;;;1.50;;
77123;SDS011;66079;47.646;19.130;2023-02-04T16:05:38;5.50;;;1.70;;
77123;SDS011;66079;47.646;19.130;2023-02-04T16:08:40;1.70;;;1.30;;
77123;SDS011;66079;47.646;19.130;2023-02-04T16:11:43;1.83;;;1.10;;
77123;SDS011;66079;47.646;19.130;2023-02-04T16:14:45;1.88;;;1.70;;
77123;SDS011;66079;47.646;19.130;2023-02-04T16:17:48;3.10;;;1.85;;
77123;SDS011;66079;47.646;19.130;2023-02-04T16:20:52;1.95;;;1.23;;
77123;SDS011;66079;47.646;19.130;2023-02-04T16:23:55;3.43;;;1.57;;
77123;SDS011;66079;47.646;19.130;2023-02-04T16:26:57;2.13;;;1.10;;
77123;SDS011;66079;47.646;19.130;2023-02-04T16:30:00;1.92;;;1.20;;
77123;SDS011;66079;47.646;19.130;2023-02-04T16:33:03;3.53;;;1.15;;
77123;SDS011;66079;47.646;19.130;2023-02-04T16:36:07;2.43;;;1.17;;
77123;SDS011;66079;47.646;19.130;2023-02-04T16:39:13;1.70;;;1.00;;
77123;SDS011;66079;47.646;19.130;2023-02-04T16:42:15;2.17;;;1.10;;
77123;SDS011;66079;47.646;19.130;2023-02-04T16:45:18;1.13;;;0.73;;
77123;SDS011;66079;47.646;19.130;2023-02-04T16:48:21;2.40;;;1.03;;
77123;SDS011;66079;47.646;19.130;2023-02-04T16:51:24;3.20;;;1.30;;
77123;SDS011;66079;47.646;19.130;2023-02-04T16:54:27;1.83;;;1.27;;
77123;SDS011;66079;47.646;19.130;2023-02-04T16:57:29;2.20;;;1.33;;
77123;SDS011;66079;47.646;19.130;2023-02-04T17:00:32;2.23;;;1.27;;
77123;SDS011;66079;47.646;19.130;2023-02-04T17:03:35;3.35;;;1.50;;
77123;SDS011;66079;47.646;19.130;2023-02-04T17:06:38;3.22;;;1.55;;
77123;SDS011;66079;47.646;19.130;2023-02-04T17:09:41;4.20;;;1.42;;
77123;SDS011;66079;47.646;19.130;2023-02-04T17:12:45;1.93;;;1.33;;
77123;SDS011;66079;47.646;19.130;2023-02-04T17:15:48;2.33;;;1.30;;
77123;SDS011;66079;47.646;19.130;2023-02-04T17:18:50;1.88;;;1.25;;
77123;SDS011;66079;47.646;19.130;2023-02-04T17:21:53;3.22;;;1.70;;
77123;SDS011;66079;47.646;19.130;2023-02-04T17:24:55;2.80;;;1.57;;
77123;SDS011;66079;47.646;19.130;2023-02-04T17:27:58;3.30;;;1.20;;
77123;SDS011;66079;47.646;19.130;2023-02-04T17:31:00;1.98;;;1.10;;
77123;SDS011;66079;47.646;19.130;2023-02-04T17:34:04;2.85;;;1.27;;
77123;SDS011;66079;47.646;19.130;2023-02-04T17:37:07;3.23;;;1.17;;
77123;SDS011;66079;47.646;19.130;2023-02-04T17:40:10;3.92;;;1.73;;
77123;SDS011;66079;47.646;19.130;2023-02-04T17:43:16;2.35;;;1.30;;
77123;SDS011;66079;47.646;19.130;2023-02-04T17:46:19;3.17;;;1.77;;
77123;SDS011;66079;47.646;19.130;2023-02-04T17:49:22;3.47;;;1.27;;
77123;SDS011;66079;47.646;19.130;2023-02-04T17:52:24;4.55;;;1.85;;
77123;SDS011;66079;47.646;19.130;2023-02-04T17:55:28;4.10;;;1.40;;
77123;SDS011;66079;47.646;19.130;2023-02-04T17:58:32;2.90;;;1.30;;
77123;SDS011;66079;47.646;19.130;2023-02-04T18:01:37;2.97;;;1.45;;
77123;SDS011;66079;47.646;19.130;2023-02-04T18:04:43;4.32;;;1.60;;
77123;SDS011;66079;47.646;19.130;2023-02-04T18:07:55;3.38;;;1.48;;
77123;SDS011;66079;47.646;19.130;2023-02-04T18:11:07;3.40;;;1.33;;
77123;SDS011;66079;47.646;19.130;2023-02-04T18:14:21;3.42;;;1.50;;
77123;SDS011;66079;47.646;19.130;2023-02-04T18:17:29;3.58;;;1.58;;
77123;SDS011;66079;47.646;19.130;2023-02-04T18:20:32;3.70;;;1.58;;
77123;SDS011;66079;47.646;19.130;2023-02-04T18:23:36;4.27;;;1.80;;